createdAt,value
2018-09-11T00:00:28.635Z,21.50
2018-09-11T00:01:01.140Z,20.10
2018-09-11T00:01:34.013Z,20.10
2018-09-11T00:02:06.531Z,20.10
2018-09-11T00:02:39.042Z,20.10
2018-09-11T00:03:11.543Z,20.10
2018-09-11T00:03:44.082Z,20.10
2018-09-11T00:04:17.356Z,20.00
2018-09-11T00:04:49.860Z,20.00
2018-09-11T00:05:22.380Z,20.00
2018-09-11T00:05:54.889Z,20.10
2018-09-11T00:06:27.422Z,20.10
2018-09-11T00:06:59.951Z,20.10
2018-09-11T00:07:33.230Z,20.10
2018-09-11T00:08:05.728Z,20.10
2018-09-11T00:08:38.262Z,20.10
2018-09-11T00:09:10.782Z,20.10
2018-09-11T00:09:43.286Z,20.10
2018-09-11T00:10:16.556Z,20.00
2018-09-11T00:10:49.072Z,20.00
2018-09-11T00:11:21.642Z,20.00
2018-09-11T00:11:54.143Z,20.00
2018-09-11T00:12:26.652Z,20.00
2018-09-11T00:12:59.922Z,20.00
2018-09-11T00:13:32.432Z,20.00
2018-09-11T00:14:04.955Z,20.00
2018-09-11T00:14:38.508Z,20.00
2018-09-11T00:15:11.023Z,20.00
2018-09-11T00:15:43.536Z,19.90
2018-09-11T00:16:16.035Z,19.90
2018-09-11T00:16:48.561Z,19.90
2018-09-11T00:17:21.071Z,19.90
2018-09-11T00:17:53.588Z,19.90
2018-09-11T00:18:26.343Z,19.90
2018-09-11T00:18:58.856Z,19.90
2018-09-11T00:19:31.360Z,19.90
2018-09-11T00:20:03.888Z,19.90
2018-09-11T00:20:36.393Z,19.90
2018-09-11T00:21:08.902Z,19.90
2018-09-11T00:21:42.153Z,19.90
2018-09-11T00:22:14.662Z,19.90
2018-09-11T00:22:47.176Z,19.90
2018-09-11T00:23:19.715Z,19.80
2018-09-11T00:23:52.221Z,18.30
2018-09-11T00:24:25.490Z,19.80
2018-09-11T00:24:57.992Z,19.80
2018-09-11T00:25:30.512Z,19.80
2018-09-11T00:26:03.024Z,19.80
2018-09-11T00:26:35.544Z,19.80
2018-09-11T00:27:08.823Z,19.80
2018-09-11T00:27:41.332Z,19.80
2018-09-11T00:28:13.835Z,19.80
2018-09-11T00:28:46.735Z,19.80
2018-09-11T00:29:19.228Z,19.80
2018-09-11T00:29:51.752Z,19.80
2018-09-11T00:30:25.035Z,19.80
2018-09-11T00:30:57.612Z,19.80
2018-09-11T00:31:30.115Z,19.80
2018-09-11T00:32:03.503Z,19.70
2018-09-11T00:32:36.012Z,19.70
2018-09-11T00:33:08.517Z,19.70
2018-09-11T00:33:41.028Z,19.70
2018-09-11T00:34:13.788Z,19.70
2018-09-11T00:34:47.050Z,19.70
2018-09-11T00:35:20.364Z,19.70
2018-09-11T00:35:52.895Z,19.70
2018-09-11T00:36:25.415Z,19.70
2018-09-11T00:36:59.137Z,19.80
2018-09-11T00:37:32.160Z,19.70
2018-09-11T00:38:05.515Z,19.70
2018-09-11T00:38:38.792Z,19.70
2018-09-11T00:39:11.308Z,19.70
2018-09-11T00:39:44.583Z,19.70
2018-09-11T00:40:17.080Z,19.70
2018-09-11T00:40:50.344Z,19.70
2018-09-11T00:41:23.611Z,19.70
2018-09-11T00:41:56.143Z,19.70
2018-09-11T00:42:29.400Z,19.60
2018-09-11T00:43:01.927Z,19.60
2018-09-11T00:43:34.419Z,19.70
2018-09-11T00:44:06.933Z,19.70
2018-09-11T00:44:39.440Z,19.60
2018-09-11T00:45:11.971Z,19.60
2018-09-11T00:45:44.478Z,19.60
2018-09-11T00:46:17.762Z,19.60
2018-09-11T00:46:50.254Z,19.60
2018-09-11T00:47:22.756Z,19.60
2018-09-11T00:47:55.264Z,19.60
2018-09-11T00:48:27.779Z,19.60
2018-09-11T00:49:00.728Z,19.60
2018-09-11T00:49:33.756Z,19.60
2018-09-11T00:50:06.815Z,19.60
2018-09-11T00:50:39.884Z,19.60
2018-09-11T00:51:12.910Z,19.60
2018-09-11T00:51:46.736Z,19.50
2018-09-11T00:52:19.744Z,19.50
2018-09-11T00:52:52.798Z,19.50
2018-09-11T00:53:25.375Z,19.50
2018-09-11T00:53:57.876Z,19.50
2018-09-11T00:54:30.394Z,19.50
2018-09-11T00:55:02.934Z,19.50
2018-09-11T00:55:35.436Z,19.50
2018-09-11T00:56:08.726Z,19.50
2018-09-11T00:56:41.998Z,19.50
2018-09-11T00:57:14.487Z,19.50
2018-09-11T00:57:46.995Z,19.50
2018-09-11T00:58:19.760Z,19.40
2018-09-11T00:58:52.317Z,19.40
2018-09-11T00:59:25.589Z,19.40
2018-09-11T00:59:58.102Z,19.40
2018-09-11T01:00:31.359Z,19.40
2018-09-11T01:01:03.879Z,19.40
2018-09-11T01:01:36.424Z,19.40
2018-09-11T01:02:08.921Z,19.40
2018-09-11T01:02:41.444Z,19.40
2018-09-11T01:03:13.939Z,19.40
2018-09-11T01:03:46.443Z,19.40
2018-09-11T01:04:19.716Z,19.40
2018-09-11T01:04:52.228Z,19.40
2018-09-11T01:05:25.175Z,19.40
2018-09-11T01:05:58.972Z,19.30
2018-09-11T01:06:32.020Z,19.30
2018-09-11T01:07:04.607Z,19.30
2018-09-11T01:07:37.143Z,19.30
2018-09-11T01:08:09.676Z,19.30
2018-09-11T01:08:42.175Z,19.30
2018-09-11T01:09:15.450Z,19.30
2018-09-11T01:09:48.765Z,19.30
2018-09-11T01:10:22.465Z,19.30
2018-09-11T01:10:55.497Z,19.30
2018-09-11T01:11:28.088Z,19.30
2018-09-11T01:12:01.391Z,19.40
2018-09-11T01:12:33.932Z,19.30
2018-09-11T01:13:06.445Z,19.40
2018-09-11T01:13:38.967Z,19.30
2018-09-11T01:14:11.484Z,19.30
2018-09-11T01:14:43.997Z,19.30
2018-09-11T01:15:16.491Z,19.20
2018-09-11T01:15:48.991Z,19.20
2018-09-11T01:16:22.262Z,19.20
2018-09-11T01:16:55.531Z,19.20
2018-09-11T01:17:28.052Z,19.20
2018-09-11T01:18:00.555Z,19.20
2018-09-11T01:18:33.056Z,19.20
2018-09-11T01:19:05.575Z,19.20
2018-09-11T01:19:38.063Z,19.20
2018-09-11T01:20:10.571Z,19.20
2018-09-11T01:20:43.072Z,19.20
2018-09-11T01:21:15.595Z,19.20
2018-09-11T01:21:48.110Z,19.20
2018-09-11T01:22:20.616Z,19.20
2018-09-11T01:22:53.135Z,19.20
2018-09-11T01:23:26.412Z,19.90
2018-09-11T01:23:58.937Z,19.20
2018-09-11T01:24:31.434Z,19.20
2018-09-11T01:25:04.707Z,19.20
2018-09-11T01:25:37.196Z,19.20
2018-09-11T01:26:09.708Z,19.20
2018-09-11T01:26:42.202Z,19.20
2018-09-11T01:27:15.483Z,19.10
2018-09-11T01:27:48.759Z,19.20
2018-09-11T01:28:22.294Z,19.10
2018-09-11T01:28:54.927Z,19.10
2018-09-11T01:29:27.431Z,19.10
2018-09-11T01:29:59.930Z,19.10
2018-09-11T01:30:33.204Z,19.20
2018-09-11T01:31:05.735Z,19.10
2018-09-11T01:31:38.232Z,20.50
2018-09-11T01:32:10.737Z,19.20
2018-09-11T01:32:43.245Z,19.10
2018-09-11T01:33:15.751Z,19.10
2018-09-11T01:33:48.294Z,19.10
2018-09-11T01:34:21.574Z,19.10
2018-09-11T01:34:54.867Z,19.10
2018-09-11T01:35:27.383Z,19.10
2018-09-11T01:35:59.895Z,19.10
2018-09-11T01:36:32.404Z,19.10
2018-09-11T01:37:04.902Z,19.10
2018-09-11T01:37:38.187Z,19.00
2018-09-11T01:38:10.772Z,19.00
2018-09-11T01:38:43.587Z,19.10
2018-09-11T01:39:16.496Z,19.00
2018-09-11T01:39:49.010Z,19.00
2018-09-11T01:40:21.514Z,19.00
2018-09-11T01:40:54.804Z,19.10
2018-09-11T01:41:27.301Z,19.00
2018-09-11T01:41:59.816Z,19.00
2018-09-11T01:42:33.095Z,19.00
2018-09-11T01:43:06.379Z,19.00
2018-09-11T01:43:39.648Z,19.00
2018-09-11T01:44:12.172Z,19.00
2018-09-11T01:44:44.824Z,19.00
2018-09-11T01:45:17.346Z,19.00
2018-09-11T01:45:49.852Z,19.00
2018-09-11T01:46:23.107Z,19.00
2018-09-11T01:46:56.391Z,19.00
2018-09-11T01:47:28.908Z,19.00
2018-09-11T01:48:01.407Z,18.90
2018-09-11T01:48:33.916Z,19.00
2018-09-11T01:49:06.463Z,19.00
2018-09-11T01:49:38.964Z,19.00
2018-09-11T01:50:11.470Z,19.00
2018-09-11T01:50:43.976Z,18.90
2018-09-11T01:51:16.483Z,18.90
2018-09-11T01:51:49.014Z,18.90
2018-09-11T01:52:22.295Z,18.90
2018-09-11T01:52:54.825Z,18.90
2018-09-11T01:53:27.363Z,18.90
2018-09-11T01:54:01.091Z,18.90
2018-09-11T01:54:33.678Z,18.90
2018-09-11T01:55:06.232Z,18.90
2018-09-11T01:55:38.989Z,18.90
2018-09-11T01:56:11.493Z,18.90
2018-09-11T01:56:44.014Z,18.80
2018-09-11T01:57:16.523Z,18.90
2018-09-11T01:57:49.477Z,18.90
2018-09-11T01:58:22.520Z,18.90
2018-09-11T01:58:55.567Z,18.80
2018-09-11T01:59:28.600Z,18.90
2018-09-11T02:00:01.645Z,18.90
2018-09-11T02:00:34.903Z,18.90
2018-09-11T02:01:07.931Z,18.90
2018-09-11T02:01:40.963Z,18.90
2018-09-11T02:02:13.999Z,18.90
2018-09-11T02:02:47.812Z,18.80
2018-09-11T02:03:20.844Z,18.80
2018-09-11T02:03:53.876Z,18.80
2018-09-11T02:04:26.936Z,18.80
2018-09-11T02:04:59.976Z,18.80
2018-09-11T02:05:33.014Z,18.80
2018-09-11T02:06:06.255Z,18.80
2018-09-11T02:06:40.051Z,18.80
2018-09-11T02:07:13.082Z,18.80
2018-09-11T02:07:46.096Z,18.80
2018-09-11T02:08:19.914Z,18.80
2018-09-11T02:08:52.937Z,18.80
2018-09-11T02:09:25.978Z,18.70
2018-09-11T02:09:59.039Z,18.80
2018-09-11T02:10:32.091Z,18.80
2018-09-11T02:11:05.885Z,18.80
2018-09-11T02:11:39.689Z,18.80
2018-09-11T02:12:12.722Z,18.80
2018-09-11T02:12:46.059Z,18.80
2018-09-11T02:13:19.087Z,18.80
2018-09-11T02:13:52.117Z,18.80
2018-09-11T02:14:25.156Z,18.70
2018-09-11T02:14:58.952Z,17.50
2018-09-11T02:15:32.028Z,18.70
2018-09-11T02:16:05.063Z,18.70
2018-09-11T02:16:38.314Z,18.70
2018-09-11T02:17:11.344Z,18.70
2018-09-11T02:17:45.387Z,18.70
2018-09-11T02:18:18.420Z,18.70
2018-09-11T02:18:52.223Z,18.70
2018-09-11T02:19:25.262Z,18.60
2018-09-11T02:19:58.317Z,18.70
2018-09-11T02:20:31.664Z,18.70
2018-09-11T02:21:04.720Z,18.70
2018-09-11T02:21:38.521Z,18.70
2018-09-11T02:22:11.552Z,18.60
2018-09-11T02:22:44.584Z,18.70
2018-09-11T02:23:17.605Z,18.70
2018-09-11T02:23:50.692Z,18.70
2018-09-11T02:24:23.675Z,18.70
2018-09-11T02:24:56.707Z,18.70
2018-09-11T02:25:29.776Z,18.70
2018-09-11T02:26:02.811Z,18.60
2018-09-11T02:26:36.636Z,18.60
2018-09-11T02:27:09.679Z,18.60
2018-09-11T02:27:43.476Z,18.60
2018-09-11T02:28:16.508Z,18.60
2018-09-11T02:28:49.539Z,18.60
2018-09-11T02:29:22.571Z,18.60
2018-09-11T02:29:55.589Z,18.60
2018-09-11T02:30:28.628Z,18.60
2018-09-11T02:31:02.449Z,18.60
2018-09-11T02:31:35.480Z,18.60
2018-09-11T02:32:08.858Z,18.60
2018-09-11T02:32:41.380Z,18.60
2018-09-11T02:33:14.320Z,18.60
2018-09-11T02:33:48.113Z,18.60
2018-09-11T02:34:21.899Z,18.60
2018-09-11T02:34:54.484Z,18.60
2018-09-11T02:35:26.986Z,18.60
2018-09-11T02:35:59.511Z,18.60
2018-09-11T02:36:32.006Z,18.60
2018-09-11T02:37:04.511Z,18.60
2018-09-11T02:37:37.025Z,18.60
2018-09-11T02:38:09.526Z,18.60
2018-09-11T02:38:42.044Z,18.60
2018-09-11T02:39:14.548Z,18.50
2018-09-11T02:39:47.831Z,18.50
2018-09-11T02:40:20.350Z,18.50
2018-09-11T02:40:52.855Z,18.50
2018-09-11T02:41:26.163Z,18.60
2018-09-11T02:41:58.665Z,18.50
2018-09-11T02:42:31.180Z,18.50
2018-09-11T02:43:03.711Z,18.50
2018-09-11T02:43:37.425Z,18.50
2018-09-11T02:44:11.232Z,18.50
2018-09-11T02:44:44.571Z,18.50
2018-09-11T02:45:18.285Z,18.50
2018-09-11T02:45:52.241Z,18.50
2018-09-11T02:46:25.307Z,18.50
2018-09-11T02:46:58.384Z,18.50
2018-09-11T02:47:31.437Z,18.50
2018-09-11T02:48:04.471Z,18.50
2018-09-11T02:48:37.506Z,18.50
2018-09-11T02:49:10.774Z,18.50
2018-09-11T02:49:43.805Z,18.50
2018-09-11T02:50:16.828Z,18.50
2018-09-11T02:50:49.862Z,18.50
2018-09-11T02:51:23.656Z,18.50
2018-09-11T02:51:57.461Z,18.50
2018-09-11T02:52:30.507Z,18.40
2018-09-11T02:53:03.544Z,18.50
2018-09-11T02:53:36.579Z,18.40
2018-09-11T02:54:09.602Z,18.50
2018-09-11T02:54:42.635Z,18.50
2018-09-11T02:55:16.446Z,18.40
2018-09-11T02:55:49.469Z,18.40
2018-09-11T02:56:22.507Z,18.50
2018-09-11T02:56:55.538Z,18.40
2018-09-11T02:57:29.349Z,18.40
2018-09-11T02:58:02.380Z,18.40
2018-09-11T02:58:35.422Z,18.40
2018-09-11T02:59:08.012Z,18.40
2018-09-11T02:59:40.520Z,18.40
2018-09-11T03:00:13.041Z,18.40
2018-09-11T03:00:45.534Z,18.40
2018-09-11T03:01:18.477Z,18.40
2018-09-11T03:01:51.504Z,18.40
2018-09-11T03:02:24.543Z,18.40
2018-09-11T03:02:57.604Z,18.40
2018-09-11T03:03:30.642Z,18.40
2018-09-11T03:04:03.685Z,18.40
2018-09-11T03:04:36.716Z,18.40
2018-09-11T03:05:09.762Z,18.40
2018-09-11T03:05:42.813Z,18.40
2018-09-11T03:06:15.859Z,18.40
2018-09-11T03:06:48.879Z,18.40
2018-09-11T03:07:22.156Z,18.40
2018-09-11T03:07:55.192Z,18.40
2018-09-11T03:08:28.243Z,18.40
2018-09-11T03:09:01.267Z,18.30
2018-09-11T03:09:34.294Z,18.30
2018-09-11T03:10:07.356Z,18.30
2018-09-11T03:10:40.420Z,18.30
2018-09-11T03:11:13.681Z,18.30
2018-09-11T03:11:46.705Z,18.30
2018-09-11T03:12:19.768Z,18.30
2018-09-11T03:12:52.792Z,18.30
2018-09-11T03:13:26.592Z,18.30
2018-09-11T03:13:59.636Z,18.30
2018-09-11T03:14:32.677Z,18.30
2018-09-11T03:15:05.713Z,18.30
2018-09-11T03:15:38.752Z,18.30
2018-09-11T03:16:11.776Z,18.30
2018-09-11T03:16:44.815Z,18.30
2018-09-11T03:17:17.842Z,18.30
2018-09-11T03:17:50.882Z,18.30
2018-09-11T03:18:23.911Z,18.30
2018-09-11T03:18:56.979Z,18.30
2018-09-11T03:19:29.984Z,18.30
2018-09-11T03:20:03.792Z,18.20
2018-09-11T03:20:37.592Z,18.20
2018-09-11T03:21:10.615Z,18.20
2018-09-11T03:21:43.659Z,18.20
2018-09-11T03:22:16.711Z,18.30
2018-09-11T03:22:49.733Z,18.20
2018-09-11T03:23:22.788Z,18.20
2018-09-11T03:23:55.818Z,18.20
2018-09-11T03:24:28.859Z,18.20
2018-09-11T03:25:01.914Z,18.20
2018-09-11T03:25:34.959Z,18.20
2018-09-11T03:26:08.744Z,18.20
2018-09-11T03:26:41.772Z,18.20
2018-09-11T03:27:14.824Z,18.20
2018-09-11T03:27:47.892Z,18.20
2018-09-11T03:28:20.939Z,18.20
2018-09-11T03:28:53.958Z,18.20
2018-09-11T03:29:27.004Z,18.20
2018-09-11T03:30:00.036Z,18.20
2018-09-11T03:30:33.056Z,18.20
2018-09-11T03:31:06.080Z,18.20
2018-09-11T03:31:39.115Z,18.20
2018-09-11T03:32:12.137Z,18.20
2018-09-11T03:32:45.178Z,18.20
2018-09-11T03:33:18.207Z,18.20
2018-09-11T03:33:52.010Z,18.20
2018-09-11T03:34:25.036Z,18.20
2018-09-11T03:34:58.098Z,18.20
2018-09-11T03:35:31.144Z,18.20
2018-09-11T03:36:03.753Z,18.20
2018-09-11T03:36:36.267Z,18.20
2018-09-11T03:37:08.782Z,18.20
2018-09-11T03:37:41.283Z,18.20
2018-09-11T03:38:13.784Z,18.10
2018-09-11T03:38:46.287Z,18.10
2018-09-11T03:39:19.589Z,18.10
2018-09-11T03:39:52.105Z,18.10
2018-09-11T03:40:24.614Z,18.20
2018-09-11T03:40:57.134Z,18.20
2018-09-11T03:41:29.646Z,19.30
2018-09-11T03:42:02.187Z,18.10
2018-09-11T03:42:34.680Z,18.10
2018-09-11T03:43:07.190Z,18.10
2018-09-11T03:43:40.468Z,18.10
2018-09-11T03:44:13.036Z,18.10
2018-09-11T03:44:45.487Z,18.10
2018-09-11T03:45:17.996Z,18.10
2018-09-11T03:45:50.499Z,18.10
2018-09-11T03:46:23.003Z,18.10
2018-09-11T03:46:56.319Z,18.10
2018-09-11T03:47:28.812Z,18.10
2018-09-11T03:48:01.322Z,18.10
2018-09-11T03:48:33.837Z,18.10
2018-09-11T03:49:06.539Z,18.10
2018-09-11T03:49:39.039Z,18.00
2018-09-11T03:50:11.544Z,18.10
2018-09-11T03:50:44.836Z,18.10
2018-09-11T03:51:17.319Z,18.10
2018-09-11T03:51:49.833Z,18.10
2018-09-11T03:52:22.372Z,18.10
2018-09-11T03:52:54.879Z,18.10
2018-09-11T03:53:27.479Z,18.10
2018-09-11T03:54:00.436Z,18.00
2018-09-11T03:54:34.232Z,17.40
2018-09-11T03:55:08.025Z,18.00
2018-09-11T03:55:41.841Z,18.00
2018-09-11T03:56:14.866Z,18.00
2018-09-11T03:56:47.912Z,18.00
2018-09-11T03:57:21.700Z,18.00
2018-09-11T03:57:54.760Z,18.00
2018-09-11T03:58:27.806Z,18.00
2018-09-11T03:59:01.616Z,18.00
2018-09-11T03:59:34.639Z,17.90
2018-09-11T04:00:07.700Z,18.00
2018-09-11T04:00:40.742Z,17.90
2018-09-11T04:01:13.804Z,17.90
2018-09-11T04:01:47.605Z,17.90
2018-09-11T04:02:20.639Z,17.90
2018-09-11T04:02:53.664Z,17.90
2018-09-11T04:03:26.719Z,17.90
2018-09-11T04:04:00.538Z,17.90
2018-09-11T04:04:33.572Z,17.90
2018-09-11T04:05:06.612Z,17.90
2018-09-11T04:05:39.632Z,17.90
2018-09-11T04:06:13.431Z,17.90
2018-09-11T04:06:47.228Z,17.90
2018-09-11T04:07:21.032Z,17.90
2018-09-11T04:07:54.039Z,17.90
2018-09-11T04:08:26.639Z,17.90
2018-09-11T04:08:59.141Z,17.90
2018-09-11T04:09:32.090Z,17.90
2018-09-11T04:10:05.145Z,17.90
2018-09-11T04:10:38.947Z,17.90
2018-09-11T04:11:13.089Z,17.80
2018-09-11T04:11:46.096Z,19.30
2018-09-11T04:12:19.124Z,17.90
2018-09-11T04:12:52.153Z,17.90
2018-09-11T04:13:25.205Z,17.80
2018-09-11T04:13:58.596Z,17.80
2018-09-11T04:14:31.624Z,17.90
2018-09-11T04:15:04.664Z,17.80
2018-09-11T04:15:38.455Z,17.80
2018-09-11T04:16:12.496Z,17.80
2018-09-11T04:16:45.565Z,17.80
2018-09-11T04:17:18.585Z,17.80
2018-09-11T04:17:51.619Z,17.80
2018-09-11T04:18:24.660Z,17.80
2018-09-11T04:18:58.507Z,17.80
2018-09-11T04:19:31.545Z,17.80
2018-09-11T04:20:04.583Z,17.80
2018-09-11T04:20:37.631Z,17.80
2018-09-11T04:21:10.654Z,17.80
2018-09-11T04:21:44.457Z,17.80
2018-09-11T04:22:18.259Z,17.80
2018-09-11T04:22:51.291Z,17.80
2018-09-11T04:23:24.329Z,17.70
2018-09-11T04:23:58.153Z,17.70
2018-09-11T04:24:31.171Z,17.70
2018-09-11T04:25:04.216Z,17.80
2018-09-11T04:25:36.921Z,17.80
2018-09-11T04:26:10.864Z,17.70
2018-09-11T04:26:43.379Z,17.70
2018-09-11T04:27:15.874Z,17.70
2018-09-11T04:27:48.371Z,17.70
2018-09-11T04:28:20.863Z,17.70
2018-09-11T04:28:53.367Z,17.70
2018-09-11T04:29:26.680Z,17.70
2018-09-11T04:29:59.177Z,17.70
2018-09-11T04:30:31.692Z,17.70
2018-09-11T04:31:04.976Z,17.70
2018-09-11T04:31:37.490Z,17.70
2018-09-11T04:32:10.004Z,17.70
2018-09-11T04:32:43.257Z,17.70
2018-09-11T04:33:15.774Z,17.70
2018-09-11T04:33:48.296Z,17.70
2018-09-11T04:34:21.671Z,17.70
2018-09-11T04:34:54.942Z,17.70
2018-09-11T04:35:27.539Z,17.70
2018-09-11T04:36:00.045Z,17.70
2018-09-11T04:36:32.624Z,17.70
2018-09-11T04:37:05.070Z,17.70
2018-09-11T04:37:37.579Z,17.70
2018-09-11T04:38:10.075Z,17.70
2018-09-11T04:38:42.975Z,17.60
2018-09-11T04:39:15.475Z,17.60
2018-09-11T04:39:48.013Z,17.70
2018-09-11T04:40:20.733Z,17.60
2018-09-11T04:40:53.262Z,17.60
2018-09-11T04:41:26.540Z,17.60
2018-09-11T04:41:59.073Z,17.60
2018-09-11T04:42:31.599Z,17.60
2018-09-11T04:43:04.131Z,17.60
2018-09-11T04:43:36.615Z,17.60
2018-09-11T04:44:09.104Z,17.60
2018-09-11T04:44:41.599Z,17.60
2018-09-11T04:45:14.131Z,17.60
2018-09-11T04:45:46.647Z,17.60
2018-09-11T04:46:19.151Z,17.60
2018-09-11T04:46:51.659Z,17.60
2018-09-11T04:47:24.931Z,17.60
2018-09-11T04:47:57.439Z,17.60
2018-09-11T04:48:29.936Z,17.60
2018-09-11T04:49:03.198Z,17.60
2018-09-11T04:49:35.695Z,17.60
2018-09-11T04:50:08.987Z,17.60
2018-09-11T04:50:41.491Z,17.60
2018-09-11T04:51:14.029Z,17.50
2018-09-11T04:51:47.288Z,17.60
2018-09-11T04:52:20.559Z,17.60
2018-09-11T04:52:53.829Z,17.60
2018-09-11T04:53:26.335Z,17.60
2018-09-11T04:53:58.856Z,17.60
2018-09-11T04:54:31.364Z,17.50
2018-09-11T04:55:03.896Z,17.60
2018-09-11T04:55:36.402Z,17.50
2018-09-11T04:56:09.006Z,17.60
2018-09-11T04:56:41.444Z,17.50
2018-09-11T04:57:13.944Z,17.50
2018-09-11T04:57:47.222Z,17.50
2018-09-11T04:58:19.757Z,17.50
2018-09-11T04:58:53.024Z,17.50
2018-09-11T04:59:25.669Z,17.50
2018-09-11T04:59:58.232Z,17.50
2018-09-11T05:00:31.491Z,17.50
2018-09-11T05:01:04.763Z,17.50
2018-09-11T05:01:37.289Z,17.50
2018-09-11T05:02:09.787Z,17.50
2018-09-11T05:02:43.060Z,17.50
2018-09-11T05:03:16.803Z,17.50
2018-09-11T05:03:49.844Z,17.50
2018-09-11T05:04:23.636Z,17.50
2018-09-11T05:04:57.442Z,17.50
2018-09-11T05:05:31.251Z,17.50
2018-09-11T05:06:04.285Z,17.50
2018-09-11T05:06:37.445Z,17.50
2018-09-11T05:07:10.596Z,17.50
2018-09-11T05:07:43.625Z,17.50
2018-09-11T05:08:16.680Z,17.50
2018-09-11T05:08:49.718Z,17.50
2018-09-11T05:09:22.741Z,17.50
2018-09-11T05:09:55.766Z,17.50
2018-09-11T05:10:28.792Z,17.50
2018-09-11T05:11:01.844Z,17.50
2018-09-11T05:11:34.862Z,17.50
2018-09-11T05:12:07.892Z,17.40
2018-09-11T05:12:40.924Z,17.50
2018-09-11T05:13:13.955Z,17.50
2018-09-11T05:13:47.000Z,17.50
2018-09-11T05:14:20.796Z,17.50
2018-09-11T05:14:53.836Z,17.50
2018-09-11T05:15:26.863Z,17.50
2018-09-11T05:15:59.892Z,17.40
2018-09-11T05:16:32.929Z,17.40
2018-09-11T05:17:06.245Z,17.40
2018-09-11T05:17:39.295Z,17.50
2018-09-11T05:18:13.118Z,17.40
2018-09-11T05:18:46.136Z,17.40
2018-09-11T05:19:19.237Z,17.40
2018-09-11T05:19:52.191Z,17.40
2018-09-11T05:20:25.242Z,17.40
2018-09-11T05:20:58.279Z,17.40
2018-09-11T05:21:31.316Z,17.40
2018-09-11T05:22:04.575Z,17.50
2018-09-11T05:22:38.562Z,17.50
2018-09-11T05:23:11.616Z,17.40
2018-09-11T05:23:44.736Z,17.40
2018-09-11T05:24:17.785Z,17.40
2018-09-11T05:24:51.023Z,17.40
2018-09-11T05:25:24.823Z,17.40
2018-09-11T05:25:57.863Z,17.40
2018-09-11T05:26:30.904Z,17.40
2018-09-11T05:27:03.936Z,17.40
2018-09-11T05:27:37.728Z,17.40
2018-09-11T05:28:11.554Z,17.40
2018-09-11T05:28:44.571Z,17.40
2018-09-11T05:29:17.609Z,17.40
2018-09-11T05:29:50.634Z,17.40
2018-09-11T05:30:23.659Z,17.40
2018-09-11T05:30:56.680Z,17.40
2018-09-11T05:31:30.483Z,17.40
2018-09-11T05:32:04.284Z,17.40
2018-09-11T05:32:37.320Z,17.40
2018-09-11T05:33:10.377Z,17.40
2018-09-11T05:33:44.172Z,17.40
2018-09-11T05:34:17.211Z,17.40
2018-09-11T05:34:50.277Z,17.40
2018-09-11T05:35:24.075Z,17.40
2018-09-11T05:35:57.100Z,17.40
2018-09-11T05:36:30.140Z,17.40
2018-09-11T05:37:03.152Z,17.50
2018-09-11T05:37:36.215Z,17.40
2018-09-11T05:38:09.256Z,17.40
2018-09-11T05:38:42.289Z,17.40
2018-09-11T05:39:15.327Z,17.40
2018-09-11T05:39:48.372Z,17.40
2018-09-11T05:40:21.427Z,17.40
2018-09-11T05:40:55.227Z,17.40
2018-09-11T05:41:28.435Z,17.40
2018-09-11T05:42:01.488Z,17.40
2018-09-11T05:42:34.502Z,17.40
2018-09-11T05:43:07.557Z,17.40
2018-09-11T05:43:40.587Z,17.40
2018-09-11T05:44:13.617Z,17.40
2018-09-11T05:44:46.652Z,17.40
2018-09-11T05:45:20.496Z,17.40
2018-09-11T05:45:53.516Z,17.40
2018-09-11T05:46:27.315Z,17.40
2018-09-11T05:47:01.139Z,17.40
2018-09-11T05:47:34.161Z,17.40
2018-09-11T05:48:07.201Z,17.40
2018-09-11T05:48:40.262Z,17.40
2018-09-11T05:49:14.104Z,17.40
2018-09-11T05:49:47.140Z,17.40
2018-09-11T05:50:20.187Z,17.40
2018-09-11T05:50:53.216Z,17.40
2018-09-11T05:51:26.270Z,17.40
2018-09-11T05:51:59.323Z,17.50
2018-09-11T05:52:32.349Z,17.50
2018-09-11T05:53:05.385Z,17.50
2018-09-11T05:53:38.405Z,17.50
2018-09-11T05:54:11.432Z,17.50
2018-09-11T05:54:45.247Z,17.50
2018-09-11T05:55:18.277Z,17.50
2018-09-11T05:55:51.317Z,17.50
2018-09-11T05:56:24.358Z,17.50
2018-09-11T05:56:58.158Z,17.50
2018-09-11T05:57:31.939Z,18.30
2018-09-11T05:58:04.983Z,17.50
2018-09-11T05:58:38.017Z,17.50
2018-09-11T05:59:11.042Z,17.50
2018-09-11T05:59:44.088Z,17.50
2018-09-11T06:00:17.925Z,17.50
2018-09-11T06:00:50.964Z,17.50
2018-09-11T06:01:24.757Z,17.50
2018-09-11T06:01:57.794Z,17.50
2018-09-11T06:02:30.828Z,17.50
2018-09-11T06:03:03.862Z,17.50
2018-09-11T06:03:36.896Z,17.60
2018-09-11T06:04:09.928Z,17.60
2018-09-11T06:04:43.726Z,17.60
2018-09-11T06:05:16.784Z,17.60
2018-09-11T06:05:50.595Z,17.70
2018-09-11T06:06:23.619Z,17.70
2018-09-11T06:06:57.419Z,17.70
2018-09-11T06:07:30.567Z,17.70
2018-09-11T06:08:03.592Z,17.70
2018-09-11T06:08:37.392Z,17.70
2018-09-11T06:09:11.197Z,17.70
2018-09-11T06:09:44.981Z,17.70
2018-09-11T06:10:18.816Z,17.70
2018-09-11T06:10:51.847Z,17.70
2018-09-11T06:11:24.888Z,17.70
2018-09-11T06:11:57.951Z,17.70
2018-09-11T06:12:30.988Z,17.70
2018-09-11T06:13:04.024Z,17.70
2018-09-11T06:13:37.066Z,17.60
2018-09-11T06:14:09.635Z,17.70
2018-09-11T06:14:42.581Z,17.70
2018-09-11T06:15:15.176Z,17.70
2018-09-11T06:15:47.707Z,17.60
2018-09-11T06:16:20.739Z,17.70
2018-09-11T06:16:54.480Z,17.80
2018-09-11T06:17:27.063Z,17.70
2018-09-11T06:17:59.587Z,17.80
2018-09-11T06:18:32.111Z,17.80
2018-09-11T06:19:05.832Z,17.80
2018-09-11T06:19:38.435Z,17.80
2018-09-11T06:20:11.696Z,17.80
2018-09-11T06:20:44.770Z,17.80
2018-09-11T06:21:17.796Z,17.80
2018-09-11T06:21:50.824Z,17.90
2018-09-11T06:22:23.851Z,17.90
2018-09-11T06:22:56.917Z,19.20
2018-09-11T06:23:29.952Z,17.90
2018-09-11T06:24:02.991Z,17.90
2018-09-11T06:24:36.111Z,17.90
2018-09-11T06:25:09.156Z,17.90
2018-09-11T06:25:42.243Z,18.00
2018-09-11T06:26:15.264Z,18.00
2018-09-11T06:26:48.312Z,17.90
2018-09-11T06:27:21.356Z,18.00
2018-09-11T06:27:54.593Z,18.00
2018-09-11T06:28:27.623Z,18.00
2018-09-11T06:29:00.712Z,18.00
2018-09-11T06:29:34.467Z,18.00
2018-09-11T06:30:08.296Z,18.10
2018-09-11T06:30:41.331Z,18.10
2018-09-11T06:31:15.161Z,18.10
2018-09-11T06:31:48.186Z,18.10
2018-09-11T06:32:21.996Z,18.10
2018-09-11T06:32:55.791Z,18.10
2018-09-11T06:33:28.836Z,18.10
2018-09-11T06:34:01.858Z,18.10
2018-09-11T06:34:34.902Z,18.10
2018-09-11T06:35:07.917Z,18.10
2018-09-11T06:35:41.717Z,18.20
2018-09-11T06:36:14.764Z,18.10
2018-09-11T06:36:47.823Z,18.20
2018-09-11T06:37:21.619Z,18.20
2018-09-11T06:37:55.422Z,18.20
2018-09-11T06:38:28.472Z,18.20
2018-09-11T06:39:01.512Z,18.20
2018-09-11T06:39:34.316Z,18.20
2018-09-11T06:40:08.040Z,18.30
2018-09-11T06:40:40.635Z,18.30
2018-09-11T06:41:13.165Z,18.30
2018-09-11T06:41:45.675Z,18.30
2018-09-11T06:42:18.184Z,18.30
2018-09-11T06:42:50.680Z,18.30
2018-09-11T06:43:23.200Z,18.30
2018-09-11T06:43:55.717Z,18.40
2018-09-11T06:44:28.231Z,18.30
2018-09-11T06:45:01.200Z,18.40
2018-09-11T06:45:34.435Z,18.40
2018-09-11T06:46:07.463Z,18.40
2018-09-11T06:46:40.493Z,18.40
2018-09-11T06:47:13.548Z,18.40
2018-09-11T06:47:46.574Z,18.40
2018-09-11T06:48:20.369Z,18.50
2018-09-11T06:48:54.164Z,18.50
2018-09-11T06:49:27.972Z,18.50
2018-09-11T06:50:01.000Z,18.50
2018-09-11T06:50:34.030Z,18.40
2018-09-11T06:51:07.817Z,18.50
2018-09-11T06:51:40.862Z,18.50
2018-09-11T06:52:14.953Z,18.50
2018-09-11T06:52:48.755Z,18.50
2018-09-11T06:53:22.544Z,18.50
2018-09-11T06:53:56.364Z,18.50
2018-09-11T06:54:29.395Z,18.50
2018-09-11T06:55:02.427Z,18.50
2018-09-11T06:55:35.495Z,18.50
2018-09-11T06:56:08.513Z,18.50
2018-09-11T06:56:41.563Z,18.50
2018-09-11T06:57:14.603Z,18.50
2018-09-11T06:57:47.687Z,18.50
2018-09-11T06:58:20.704Z,18.50
2018-09-11T06:58:53.985Z,18.60
2018-09-11T06:59:26.996Z,18.60
2018-09-11T07:00:00.031Z,18.60
2018-09-11T07:00:32.894Z,18.60
2018-09-11T07:01:05.351Z,18.60
2018-09-11T07:01:37.857Z,18.70
2018-09-11T07:02:10.373Z,18.70
2018-09-11T07:02:42.878Z,18.70
2018-09-11T07:03:16.171Z,18.70
2018-09-11T07:03:48.737Z,18.70
2018-09-11T07:04:21.263Z,18.70
2018-09-11T07:04:54.515Z,18.80